PRC weather

Puertecitos Airport
Ensenada, Baja California, Mexico

Public forecast

Using degrees Celsius for public forecast. Weather courtesy of forecast.io.

METAR (pilot weather report)

Closest report is (Old) Puerto PeƱasco Airport, 83.2 nm (154.0 km) NE. Retrieved UTC (0 seconds ago):

TAF (pilot weather forecast)

Forecast is more than 6 hours old.

Closest forecast is General Ignacio P. Garcia International Airport, 201.9 nm (373.9 km) ESE. Retrieved 2019/05/24 18:20 UTC (10 hours ago):

TAF MMHO 241714Z 2418/2518 35010KT P6SM SKC FM250200 00000KT P6SM SKC FM251600 20008KT P6SM SKC